AUA29N LOWW-EBBR
Flight info
| Callsign | AUA29N |
|---|---|
| Flight time | 1h 24m |
| Altitude | 36000 |
| Route | MEDIX DCT RENKA DCT INBED DCT TEKTU DCT TESGA DCT UMUPU T880 BATTY |
| Aircraft | A320/M-SDE3FGHIRWY/LB1 |
Departure
| Time | 2026-04-25 12:26 |
|---|---|
| Airport | Vienna International Airport (LOWW) |
Arrival
| Time | 2026-04-25 13:50 |
|---|---|
| Airport | Brussels Airport (EBBR) |
| Time | Latitude | Longitude | Altitude | Speed | Heading |
|---|---|---|---|---|---|
| 2026-04-25 11:57 | 48.11877 | 16.56820 | 611 ft | 0 kts | 206° |
| 2026-04-25 12:13 | 48.11878 | 16.56820 | 610 ft | 0 kts | 206° |
| 2026-04-25 12:15 | 48.11888 | 16.56828 | 610 ft | 3 kts | 206° |
| 2026-04-25 12:15 | 48.11906 | 16.56841 | 614 ft | 3 kts | 206° |
| 2026-04-25 12:15 | 48.11924 | 16.56853 | 625 ft | 3 kts | 188° |
| 2026-04-25 12:15 | 48.11942 | 16.56852 | 621 ft | 3 kts | 151° |
| 2026-04-25 12:16 | 48.11954 | 16.56837 | 624 ft | 1 kts | 116° |
| 2026-04-25 12:16 | 48.11959 | 16.56822 | 623 ft | 2 kts | 116° |
| 2026-04-25 12:16 | 48.11962 | 16.56816 | 625 ft | 0 kts | 116° |
| 2026-04-25 12:18 | 48.11960 | 16.56821 | 623 ft | 4 kts | 116° |
| 2026-04-25 12:18 | 48.11935 | 16.56896 | 615 ft | 12 kts | 116° |
| 2026-04-25 12:19 | 48.11868 | 16.57101 | 620 ft | 11 kts | 116° |
| 2026-04-25 12:19 | 48.11848 | 16.57231 | 611 ft | 9 kts | 114° |
| 2026-04-25 12:19 | 48.11817 | 16.57324 | 615 ft | 11 kts | 121° |
| 2026-04-25 12:20 | 48.11752 | 16.57368 | 614 ft | 10 kts | 164° |
| 2026-04-25 12:20 | 48.11682 | 16.57399 | 613 ft | 15 kts | 163° |
| 2026-04-25 12:20 | 48.11570 | 16.57445 | 614 ft | 16 kts | 164° |
| 2026-04-25 12:20 | 48.11469 | 16.57443 | 611 ft | 14 kts | 205° |
| 2026-04-25 12:21 | 48.11378 | 16.57379 | 623 ft | 15 kts | 206° |
| 2026-04-25 12:21 | 48.11281 | 16.57307 | 620 ft | 16 kts | 206° |
| 2026-04-25 12:21 | 48.11188 | 16.57338 | 615 ft | 15 kts | 118° |
| 2026-04-25 12:21 | 48.11158 | 16.57434 | 610 ft | 9 kts | 116° |
| 2026-04-25 12:22 | 48.11128 | 16.57508 | 618 ft | 9 kts | 131° |
| 2026-04-25 12:22 | 48.11076 | 16.57524 | 610 ft | 7 kts | 195° |
| 2026-04-25 12:22 | 48.11057 | 16.57511 | 610 ft | 0 kts | 206° |
| 2026-04-25 12:23 | 48.11042 | 16.57500 | 616 ft | 9 kts | 206° |
| 2026-04-25 12:23 | 48.10969 | 16.57430 | 627 ft | 11 kts | 243° |
| 2026-04-25 12:23 | 48.10983 | 16.57325 | 623 ft | 0 kts | 294° |
| 2026-04-25 12:24 | 48.10983 | 16.57324 | 623 ft | 0 kts | 294° |
| 2026-04-25 12:25 | 48.11006 | 16.57248 | 616 ft | 29 kts | 294° |
| 2026-04-25 12:25 | 48.11204 | 16.56645 | 614 ft | 97 kts | 296° |
| 2026-04-25 12:25 | 48.11587 | 16.55468 | 611 ft | 149 kts | 296° |
| 2026-04-25 12:25 | 48.12097 | 16.53907 | 816 ft | 176 kts | 296° |
| 2026-04-25 12:26 | 48.12447 | 16.52130 | 1450 ft | 182 kts | 273° |
| 2026-04-25 12:26 | 48.12302 | 16.50248 | 2101 ft | 188 kts | 258° |
| 2026-04-25 12:26 | 48.11983 | 16.48354 | 2806 ft | 189 kts | 258° |
| 2026-04-25 12:26 | 48.11643 | 16.46416 | 3370 ft | 199 kts | 258° |
| 2026-04-25 12:27 | 48.11294 | 16.44367 | 3925 ft | 208 kts | 259° |
| 2026-04-25 12:27 | 48.10906 | 16.42180 | 4413 ft | 229 kts | 257° |
| 2026-04-25 12:27 | 48.10786 | 16.41561 | 4519 ft | 236 kts | 257° |
| 2026-04-25 12:27 | 48.10301 | 16.39104 | 5046 ft | 252 kts | 257° |
| 2026-04-25 12:28 | 48.09903 | 16.36546 | 5892 ft | 254 kts | 268° |
| 2026-04-25 12:28 | 48.09853 | 16.33877 | 6653 ft | 257 kts | 273° |
| 2026-04-25 12:28 | 48.09875 | 16.31188 | 7457 ft | 262 kts | 273° |
| 2026-04-25 12:28 | 48.09923 | 16.28445 | 8251 ft | 266 kts | 274° |
| 2026-04-25 12:29 | 48.09980 | 16.25645 | 9032 ft | 272 kts | 273° |
| 2026-04-25 12:29 | 48.10036 | 16.22799 | 9916 ft | 273 kts | 275° |
| 2026-04-25 12:29 | 48.10268 | 16.19982 | 10624 ft | 277 kts | 286° |
| 2026-04-25 12:29 | 48.10917 | 16.17140 | 10869 ft | 300 kts | 292° |
| 2026-04-25 12:30 | 48.11676 | 16.14124 | 11152 ft | 319 kts | 291° |
| 2026-04-25 12:30 | 48.12454 | 16.11002 | 11902 ft | 321 kts | 291° |
| 2026-04-25 12:30 | 48.13234 | 16.07858 | 12671 ft | 323 kts | 291° |
| 2026-04-25 12:30 | 48.14010 | 16.04716 | 13365 ft | 328 kts | 291° |
| 2026-04-25 12:31 | 48.14799 | 16.01505 | 13996 ft | 332 kts | 290° |
| 2026-04-25 12:31 | 48.15603 | 15.98210 | 14582 ft | 337 kts | 290° |
| 2026-04-25 12:31 | 48.16406 | 15.94914 | 15310 ft | 336 kts | 290° |
| 2026-04-25 12:31 | 48.17210 | 15.91609 | 15963 ft | 339 kts | 290° |
| 2026-04-25 12:32 | 48.17748 | 15.89390 | 16304 ft | 344 kts | 290° |
| 2026-04-25 12:32 | 48.18842 | 15.84872 | 17210 ft | 345 kts | 289° |
| 2026-04-25 12:32 | 48.19387 | 15.82620 | 17592 ft | 348 kts | 289° |
| 2026-04-25 12:32 | 48.20219 | 15.79188 | 18180 ft | 351 kts | 289° |
| 2026-04-25 12:33 | 48.21054 | 15.75746 | 18788 ft | 353 kts | 289° |
| 2026-04-25 12:33 | 48.21898 | 15.72268 | 19274 ft | 357 kts | 289° |
| 2026-04-25 12:33 | 48.22747 | 15.68763 | 19857 ft | 359 kts | 289° |
| 2026-04-25 12:33 | 48.23598 | 15.65242 | 20410 ft | 361 kts | 289° |
| 2026-04-25 12:34 | 48.24452 | 15.61694 | 20969 ft | 363 kts | 289° |
| 2026-04-25 12:34 | 48.25310 | 15.58119 | 21517 ft | 366 kts | 289° |
| 2026-04-25 12:34 | 48.26174 | 15.54513 | 22051 ft | 368 kts | 289° |
| 2026-04-25 12:34 | 48.26759 | 15.52064 | 22410 ft | 370 kts | 288° |
| 2026-04-25 12:35 | 48.27907 | 15.47216 | 23086 ft | 373 kts | 288° |
| 2026-04-25 12:35 | 48.28780 | 15.43528 | 23595 ft | 376 kts | 288° |
| 2026-04-25 12:35 | 48.29594 | 15.39797 | 23927 ft | 377 kts | 283° |
| 2026-04-25 12:35 | 48.30222 | 15.35973 | 24009 ft | 377 kts | 283° |
| 2026-04-25 12:36 | 48.30838 | 15.32149 | 24029 ft | 376 kts | 282° |
| 2026-04-25 12:36 | 48.31453 | 15.28318 | 24147 ft | 379 kts | 282° |
| 2026-04-25 12:36 | 48.32070 | 15.24457 | 24592 ft | 380 kts | 282° |
| 2026-04-25 12:36 | 48.32686 | 15.20588 | 24998 ft | 382 kts | 282° |
| 2026-04-25 12:37 | 48.33306 | 15.16691 | 25375 ft | 384 kts | 282° |
| 2026-04-25 12:37 | 48.33926 | 15.12774 | 25743 ft | 386 kts | 282° |
| 2026-04-25 12:37 | 48.34551 | 15.08846 | 26120 ft | 388 kts | 282° |
| 2026-04-25 12:37 | 48.35181 | 15.04892 | 26485 ft | 390 kts | 282° |
| 2026-04-25 12:38 | 48.35811 | 15.00923 | 26855 ft | 391 kts | 282° |
| 2026-04-25 12:38 | 48.36440 | 14.96933 | 27213 ft | 393 kts | 282° |
| 2026-04-25 12:38 | 48.37069 | 14.92924 | 27572 ft | 395 kts | 282° |
| 2026-04-25 12:38 | 48.37702 | 14.88890 | 27924 ft | 397 kts | 282° |
| 2026-04-25 12:39 | 48.38342 | 14.84791 | 28276 ft | 398 kts | 282° |
| 2026-04-25 12:39 | 48.38976 | 14.80727 | 28610 ft | 400 kts | 282° |
| 2026-04-25 12:39 | 48.39604 | 14.76693 | 28937 ft | 402 kts | 282° |
| 2026-04-25 12:39 | 48.40242 | 14.72588 | 29236 ft | 404 kts | 281° |
| 2026-04-25 12:40 | 48.40882 | 14.68460 | 29542 ft | 406 kts | 282° |
| 2026-04-25 12:40 | 48.41525 | 14.64316 | 29844 ft | 407 kts | 282° |
| 2026-04-25 12:40 | 48.42168 | 14.60158 | 30135 ft | 409 kts | 281° |
| 2026-04-25 12:40 | 48.42813 | 14.55980 | 30372 ft | 410 kts | 281° |
| 2026-04-25 12:41 | 48.43461 | 14.51788 | 30604 ft | 411 kts | 281° |
| 2026-04-25 12:41 | 48.44105 | 14.47595 | 30819 ft | 413 kts | 281° |
| 2026-04-25 12:41 | 48.44748 | 14.43388 | 31042 ft | 414 kts | 281° |
| 2026-04-25 12:41 | 48.45394 | 14.39138 | 31304 ft | 413 kts | 281° |
| 2026-04-25 12:42 | 48.46017 | 14.35030 | 31588 ft | 413 kts | 281° |
| 2026-04-25 12:42 | 48.46434 | 14.32269 | 31766 ft | 412 kts | 281° |
| 2026-04-25 12:42 | 48.47287 | 14.26610 | 32167 ft | 411 kts | 281° |
| 2026-04-25 12:42 | 48.47920 | 14.22409 | 32478 ft | 410 kts | 281° |
| 2026-04-25 12:43 | 48.48548 | 14.18225 | 32800 ft | 409 kts | 281° |
| 2026-04-25 12:43 | 48.49174 | 14.14051 | 33098 ft | 408 kts | 281° |
| 2026-04-25 12:43 | 48.50417 | 14.05727 | 33726 ft | 406 kts | 281° |
| 2026-04-25 12:44 | 48.51026 | 14.01638 | 34035 ft | 404 kts | 281° |
| 2026-04-25 12:44 | 48.51640 | 13.97503 | 34303 ft | 403 kts | 281° |
| 2026-04-25 12:44 | 48.52861 | 13.89249 | 34749 ft | 403 kts | 281° |
| 2026-04-25 12:45 | 48.53468 | 13.85117 | 34959 ft | 404 kts | 281° |
| 2026-04-25 12:45 | 48.55281 | 13.72714 | 35067 ft | 403 kts | 281° |
| 2026-04-25 12:46 | 48.56486 | 13.64439 | 35064 ft | 403 kts | 281° |
| 2026-04-25 12:46 | 48.57678 | 13.56155 | 35071 ft | 403 kts | 281° |
| 2026-04-25 12:47 | 48.59289 | 13.48040 | 35070 ft | 408 kts | 293° |
| 2026-04-25 12:47 | 48.61821 | 13.40362 | 35070 ft | 408 kts | 294° |
| 2026-04-25 12:48 | 48.64349 | 13.32675 | 35070 ft | 408 kts | 294° |
| 2026-04-25 12:48 | 48.66862 | 13.24984 | 35074 ft | 408 kts | 294° |
| 2026-04-25 12:49 | 48.69373 | 13.17281 | 35068 ft | 408 kts | 293° |
| 2026-04-25 12:49 | 48.71861 | 13.09598 | 35076 ft | 409 kts | 294° |
| 2026-04-25 12:50 | 48.74363 | 13.01841 | 35073 ft | 410 kts | 293° |
| 2026-04-25 12:50 | 48.76868 | 12.94078 | 35074 ft | 410 kts | 293° |
| 2026-04-25 12:51 | 48.79376 | 12.86297 | 35073 ft | 410 kts | 293° |
| 2026-04-25 12:51 | 48.81876 | 12.78524 | 35074 ft | 410 kts | 294° |
| 2026-04-25 12:52 | 48.84363 | 12.70725 | 35069 ft | 411 kts | 294° |
| 2026-04-25 12:52 | 48.86852 | 12.62913 | 35072 ft | 411 kts | 294° |
| 2026-04-25 12:53 | 48.89336 | 12.55109 | 35078 ft | 411 kts | 294° |
| 2026-04-25 12:53 | 48.91814 | 12.47287 | 35081 ft | 411 kts | 293° |
| 2026-04-25 12:54 | 48.94281 | 12.39456 | 35077 ft | 411 kts | 293° |
| 2026-04-25 12:54 | 48.96752 | 12.31597 | 35078 ft | 412 kts | 293° |
| 2026-04-25 12:55 | 48.98807 | 12.25050 | 35075 ft | 413 kts | 293° |
| 2026-04-25 12:55 | 49.01696 | 12.15822 | 35082 ft | 413 kts | 293° |
| 2026-04-25 12:56 | 49.04144 | 12.07964 | 35081 ft | 413 kts | 293° |
| 2026-04-25 12:56 | 49.06600 | 12.00048 | 35088 ft | 413 kts | 293° |
| 2026-04-25 12:57 | 49.09066 | 11.92104 | 35090 ft | 415 kts | 294° |
| 2026-04-25 12:57 | 49.11532 | 11.84147 | 35089 ft | 415 kts | 294° |
| 2026-04-25 12:58 | 49.13983 | 11.76166 | 35094 ft | 415 kts | 293° |
| 2026-04-25 12:58 | 49.15616 | 11.70820 | 35100 ft | 414 kts | 294° |
| 2026-04-25 12:59 | 49.17966 | 11.63154 | 35090 ft | 412 kts | 294° |
| 2026-04-25 12:59 | 49.20386 | 11.55209 | 35087 ft | 412 kts | 294° |
| 2026-04-25 13:00 | 49.21989 | 11.49931 | 35086 ft | 413 kts | 294° |
| 2026-04-25 13:00 | 49.25231 | 11.39257 | 35084 ft | 413 kts | 294° |
| 2026-04-25 13:01 | 49.27646 | 11.31272 | 35080 ft | 413 kts | 294° |
| 2026-04-25 13:01 | 49.30033 | 11.23326 | 35083 ft | 413 kts | 294° |
| 2026-04-25 13:02 | 49.32434 | 11.15309 | 35079 ft | 414 kts | 294° |
| 2026-04-25 13:02 | 49.34846 | 11.07252 | 35090 ft | 416 kts | 294° |
| 2026-04-25 13:03 | 49.37252 | 10.99192 | 35084 ft | 416 kts | 294° |
| 2026-04-25 13:03 | 49.40172 | 10.91559 | 35090 ft | 416 kts | 309° |
| 2026-04-25 13:04 | 49.43916 | 10.84754 | 35090 ft | 417 kts | 309° |
| 2026-04-25 13:04 | 49.47640 | 10.77916 | 35107 ft | 417 kts | 309° |
| 2026-04-25 13:05 | 49.51360 | 10.71050 | 35110 ft | 418 kts | 310° |
| 2026-04-25 13:05 | 49.55086 | 10.64179 | 35109 ft | 418 kts | 310° |
| 2026-04-25 13:06 | 49.58782 | 10.57342 | 35106 ft | 418 kts | 310° |
| 2026-04-25 13:06 | 49.62498 | 10.50446 | 35104 ft | 418 kts | 310° |
| 2026-04-25 13:07 | 49.66209 | 10.43553 | 35108 ft | 418 kts | 309° |
| 2026-04-25 13:07 | 49.69916 | 10.36643 | 35108 ft | 418 kts | 310° |
| 2026-04-25 13:08 | 49.73614 | 10.29725 | 35118 ft | 417 kts | 310° |
| 2026-04-25 13:08 | 49.77298 | 10.22824 | 35108 ft | 415 kts | 309° |
| 2026-04-25 13:09 | 49.80976 | 10.15922 | 35106 ft | 415 kts | 309° |
| 2026-04-25 13:09 | 49.84641 | 10.09017 | 35107 ft | 415 kts | 309° |
| 2026-04-25 13:10 | 49.88298 | 10.02103 | 35089 ft | 415 kts | 309° |
| 2026-04-25 13:10 | 49.91959 | 9.95162 | 35107 ft | 415 kts | 309° |
| 2026-04-25 13:11 | 49.95620 | 9.88217 | 35101 ft | 416 kts | 309° |
| 2026-04-25 13:11 | 49.99278 | 9.81259 | 35107 ft | 416 kts | 309° |
| 2026-04-25 13:12 | 50.02917 | 9.74298 | 35103 ft | 414 kts | 309° |
| 2026-04-25 13:12 | 50.05347 | 9.69643 | 35109 ft | 414 kts | 309° |
| 2026-04-25 13:13 | 50.10174 | 9.60397 | 35109 ft | 414 kts | 309° |
| 2026-04-25 13:13 | 50.13188 | 9.54604 | 35111 ft | 414 kts | 309° |
| 2026-04-25 13:14 | 50.16808 | 9.47609 | 35108 ft | 414 kts | 309° |
| 2026-04-25 13:14 | 50.20424 | 9.40607 | 35109 ft | 414 kts | 309° |
| 2026-04-25 13:15 | 50.24041 | 9.33597 | 35110 ft | 414 kts | 309° |
| 2026-04-25 13:15 | 50.27654 | 9.26585 | 35111 ft | 414 kts | 309° |
| 2026-04-25 13:16 | 50.31248 | 9.19577 | 35113 ft | 413 kts | 309° |
| 2026-04-25 13:16 | 50.34430 | 9.12124 | 35107 ft | 413 kts | 295° |
| 2026-04-25 13:17 | 50.36280 | 9.03586 | 35110 ft | 415 kts | 289° |
| 2026-04-25 13:17 | 50.37987 | 8.95018 | 35108 ft | 415 kts | 289° |
| 2026-04-25 13:18 | 50.39705 | 8.86388 | 35112 ft | 415 kts | 289° |
| 2026-04-25 13:18 | 50.41407 | 8.77748 | 35110 ft | 415 kts | 289° |
| 2026-04-25 13:19 | 50.43102 | 8.69087 | 35115 ft | 415 kts | 289° |
| 2026-04-25 13:19 | 50.44472 | 8.61815 | 35112 ft | 416 kts | 284° |
| 2026-04-25 13:20 | 50.45552 | 8.51385 | 35116 ft | 417 kts | 281° |
| 2026-04-25 13:20 | 50.46446 | 8.42393 | 35116 ft | 417 kts | 281° |
| 2026-04-25 13:21 | 50.47341 | 8.33390 | 35125 ft | 417 kts | 281° |
| 2026-04-25 13:21 | 50.48229 | 8.24390 | 35131 ft | 417 kts | 281° |
| 2026-04-25 13:22 | 50.49104 | 8.15387 | 35138 ft | 417 kts | 281° |
| 2026-04-25 13:23 | 50.50403 | 8.01874 | 35140 ft | 417 kts | 281° |
| 2026-04-25 13:23 | 50.51257 | 7.92861 | 35148 ft | 417 kts | 281° |
| 2026-04-25 13:24 | 50.52107 | 7.83852 | 35150 ft | 417 kts | 280° |
| 2026-04-25 13:24 | 50.52955 | 7.74834 | 35155 ft | 417 kts | 280° |
| 2026-04-25 13:25 | 50.53792 | 7.65818 | 35156 ft | 417 kts | 280° |
| 2026-04-25 13:25 | 50.54624 | 7.56776 | 35163 ft | 417 kts | 280° |
| 2026-04-25 13:26 | 50.55444 | 7.47747 | 35162 ft | 417 kts | 280° |
| 2026-04-25 13:26 | 50.55902 | 7.39734 | 35170 ft | 419 kts | 273° |
| 2026-04-25 13:27 | 50.55969 | 7.30553 | 35168 ft | 419 kts | 273° |
| 2026-04-25 13:27 | 50.56028 | 7.21411 | 34571 ft | 416 kts | 272° |
| 2026-04-25 13:27 | 50.56051 | 7.16870 | 34258 ft | 416 kts | 272° |
| 2026-04-25 13:28 | 50.56023 | 7.12312 | 34136 ft | 417 kts | 271° |
| 2026-04-25 13:28 | 50.55821 | 7.03213 | 33282 ft | 414 kts | 270° |
| 2026-04-25 13:28 | 50.55689 | 6.98713 | 32675 ft | 411 kts | 270° |
| 2026-04-25 13:29 | 50.55561 | 6.94246 | 32095 ft | 407 kts | 270° |
| 2026-04-25 13:29 | 50.55442 | 6.89828 | 31548 ft | 403 kts | 270° |
| 2026-04-25 13:29 | 50.55332 | 6.85487 | 30946 ft | 402 kts | 271° |
| 2026-04-25 13:30 | 50.55119 | 6.76655 | 29528 ft | 402 kts | 271° |
| 2026-04-25 13:30 | 50.55014 | 6.72262 | 28781 ft | 402 kts | 271° |
| 2026-04-25 13:30 | 50.55131 | 6.67914 | 28272 ft | 393 kts | 281° |
| 2026-04-25 13:31 | 50.56120 | 6.59715 | 28105 ft | 380 kts | 283° |
| 2026-04-25 13:31 | 50.56607 | 6.55635 | 27503 ft | 380 kts | 283° |
| 2026-04-25 13:31 | 50.57088 | 6.51565 | 26877 ft | 379 kts | 283° |
| 2026-04-25 13:31 | 50.57568 | 6.47505 | 26274 ft | 378 kts | 283° |
| 2026-04-25 13:32 | 50.58050 | 6.43427 | 25679 ft | 377 kts | 283° |
| 2026-04-25 13:32 | 50.58531 | 6.39375 | 25101 ft | 376 kts | 283° |
| 2026-04-25 13:32 | 50.59014 | 6.35331 | 24529 ft | 374 kts | 283° |
| 2026-04-25 13:32 | 50.59485 | 6.31374 | 23978 ft | 365 kts | 283° |
| 2026-04-25 13:33 | 50.59955 | 6.27437 | 23359 ft | 366 kts | 283° |
| 2026-04-25 13:33 | 50.60422 | 6.23518 | 22833 ft | 363 kts | 282° |
| 2026-04-25 13:33 | 50.60884 | 6.19619 | 22315 ft | 361 kts | 282° |
| 2026-04-25 13:33 | 50.61188 | 6.17047 | 21986 ft | 359 kts | 282° |
| 2026-04-25 13:34 | 50.61790 | 6.11886 | 21339 ft | 357 kts | 282° |
| 2026-04-25 13:34 | 50.62235 | 6.08055 | 20852 ft | 354 kts | 282° |
| 2026-04-25 13:34 | 50.62679 | 6.04249 | 20369 ft | 352 kts | 282° |
| 2026-04-25 13:34 | 50.63121 | 6.00459 | 19908 ft | 350 kts | 282° |
| 2026-04-25 13:35 | 50.63558 | 5.96695 | 19454 ft | 349 kts | 281° |
| 2026-04-25 13:35 | 50.63989 | 5.92941 | 19002 ft | 347 kts | 281° |
| 2026-04-25 13:35 | 50.64418 | 5.89199 | 18555 ft | 346 kts | 281° |
| 2026-04-25 13:35 | 50.64916 | 5.85496 | 18054 ft | 345 kts | 288° |
| 2026-04-25 13:36 | 50.65835 | 5.82023 | 17553 ft | 343 kts | 297° |
| 2026-04-25 13:36 | 50.66917 | 5.78709 | 17282 ft | 336 kts | 297° |
| 2026-04-25 13:36 | 50.67969 | 5.75459 | 16924 ft | 331 kts | 297° |
| 2026-04-25 13:36 | 50.69008 | 5.72228 | 16528 ft | 329 kts | 297° |
| 2026-04-25 13:37 | 50.70036 | 5.69020 | 16140 ft | 326 kts | 297° |
| 2026-04-25 13:37 | 50.71053 | 5.65836 | 15752 ft | 324 kts | 297° |
| 2026-04-25 13:37 | 50.72063 | 5.62671 | 15369 ft | 322 kts | 297° |
| 2026-04-25 13:37 | 50.73067 | 5.59532 | 14953 ft | 320 kts | 297° |
| 2026-04-25 13:38 | 50.74072 | 5.56398 | 14568 ft | 319 kts | 297° |
| 2026-04-25 13:38 | 50.75069 | 5.53281 | 14218 ft | 317 kts | 297° |
| 2026-04-25 13:38 | 50.76059 | 5.50187 | 13864 ft | 314 kts | 297° |
| 2026-04-25 13:38 | 50.77025 | 5.47161 | 13477 ft | 312 kts | 297° |
| 2026-04-25 13:39 | 50.78008 | 5.44080 | 13047 ft | 310 kts | 297° |
| 2026-04-25 13:39 | 50.78976 | 5.41035 | 12610 ft | 309 kts | 297° |
| 2026-04-25 13:39 | 50.79924 | 5.38041 | 12231 ft | 307 kts | 297° |
| 2026-04-25 13:39 | 50.80875 | 5.35030 | 11851 ft | 305 kts | 297° |
| 2026-04-25 13:40 | 50.81818 | 5.32042 | 11477 ft | 303 kts | 297° |
| 2026-04-25 13:40 | 50.82765 | 5.29034 | 11096 ft | 301 kts | 297° |
| 2026-04-25 13:40 | 50.83693 | 5.26087 | 10736 ft | 298 kts | 297° |
| 2026-04-25 13:40 | 50.84609 | 5.23170 | 10378 ft | 295 kts | 297° |
| 2026-04-25 13:41 | 50.85517 | 5.20276 | 10006 ft | 292 kts | 297° |
| 2026-04-25 13:41 | 50.86406 | 5.17451 | 9618 ft | 289 kts | 297° |
| 2026-04-25 13:41 | 50.87279 | 5.14673 | 9215 ft | 276 kts | 297° |
| 2026-04-25 13:41 | 50.88123 | 5.11980 | 8828 ft | 273 kts | 297° |
| 2026-04-25 13:42 | 50.88932 | 5.09315 | 8451 ft | 271 kts | 296° |
| 2026-04-25 13:42 | 50.89731 | 5.06625 | 8076 ft | 269 kts | 297° |
| 2026-04-25 13:42 | 50.90517 | 5.03950 | 7684 ft | 267 kts | 296° |
| 2026-04-25 13:42 | 50.91302 | 5.01286 | 7318 ft | 267 kts | 296° |
| 2026-04-25 13:43 | 50.92087 | 4.98625 | 6946 ft | 266 kts | 296° |
| 2026-04-25 13:43 | 50.92870 | 4.95973 | 6578 ft | 265 kts | 296° |
| 2026-04-25 13:43 | 50.93653 | 4.93328 | 6189 ft | 265 kts | 296° |
| 2026-04-25 13:43 | 50.94430 | 4.90701 | 5804 ft | 262 kts | 296° |
| 2026-04-25 13:44 | 50.95194 | 4.88123 | 5415 ft | 252 kts | 296° |
| 2026-04-25 13:44 | 50.95918 | 4.85669 | 5042 ft | 240 kts | 296° |
| 2026-04-25 13:44 | 50.96610 | 4.83312 | 4653 ft | 231 kts | 296° |
| 2026-04-25 13:44 | 50.97278 | 4.81043 | 4271 ft | 223 kts | 296° |
| 2026-04-25 13:45 | 50.97924 | 4.78844 | 3894 ft | 217 kts | 295° |
| 2026-04-25 13:45 | 50.98285 | 4.76584 | 3667 ft | 207 kts | 274° |
| 2026-04-25 13:45 | 50.98124 | 4.74384 | 3472 ft | 196 kts | 255° |
| 2026-04-25 13:45 | 50.97604 | 4.72445 | 3187 ft | 186 kts | 248° |
| 2026-04-25 13:46 | 50.97089 | 4.70638 | 2979 ft | 177 kts | 249° |
| 2026-04-25 13:46 | 50.96594 | 4.68900 | 2725 ft | 168 kts | 249° |
| 2026-04-25 13:46 | 50.96119 | 4.67237 | 2514 ft | 162 kts | 249° |
| 2026-04-25 13:46 | 50.95665 | 4.65655 | 2308 ft | 154 kts | 248° |
| 2026-04-25 13:47 | 50.95222 | 4.64104 | 2102 ft | 156 kts | 248° |
| 2026-04-25 13:47 | 50.94778 | 4.62555 | 1892 ft | 151 kts | 248° |
| 2026-04-25 13:47 | 50.94349 | 4.61060 | 1675 ft | 147 kts | 247° |
| 2026-04-25 13:47 | 50.93930 | 4.59600 | 1467 ft | 144 kts | 247° |
| 2026-04-25 13:48 | 50.93516 | 4.58156 | 1289 ft | 143 kts | 248° |
| 2026-04-25 13:48 | 50.93104 | 4.56719 | 1089 ft | 143 kts | 249° |
| 2026-04-25 13:48 | 50.92690 | 4.55282 | 889 ft | 143 kts | 248° |
| 2026-04-25 13:48 | 50.92281 | 4.53860 | 695 ft | 142 kts | 248° |
| 2026-04-25 13:49 | 50.91875 | 4.52449 | 496 ft | 140 kts | 248° |
| 2026-04-25 13:49 | 50.91470 | 4.51042 | 309 ft | 140 kts | 248° |
| 2026-04-25 13:49 | 50.91068 | 4.49641 | 133 ft | 139 kts | 248° |
| 2026-04-25 13:49 | 50.90713 | 4.48397 | 119 ft | 101 kts | 245° |
| 2026-04-25 13:50 | 50.90501 | 4.47674 | 121 ft | 48 kts | 244° |
| 2026-04-25 13:50 | 50.90374 | 4.47236 | 125 ft | 34 kts | 245° |
| 2026-04-25 13:50 | 50.90304 | 4.46998 | 127 ft | 15 kts | 245° |
| 2026-04-25 13:50 | 50.90231 | 4.46934 | 128 ft | 12 kts | 153° |
| 2026-04-25 13:51 | 50.90193 | 4.47043 | 125 ft | 11 kts | 115° |
| 2026-04-25 13:51 | 50.90169 | 4.47152 | 126 ft | 10 kts | 76° |
| 2026-04-25 13:51 | 50.90199 | 4.47255 | 124 ft | 10 kts | 63° |
| 2026-04-25 13:51 | 50.90228 | 4.47359 | 120 ft | 10 kts | 68° |
| 2026-04-25 13:52 | 50.90258 | 4.47462 | 120 ft | 11 kts | 65° |
| 2026-04-25 13:52 | 50.90287 | 4.47563 | 121 ft | 9 kts | 65° |
| 2026-04-25 13:52 | 50.90313 | 4.47651 | 119 ft | 8 kts | 65° |
| 2026-04-25 13:52 | 50.90335 | 4.47730 | 120 ft | 7 kts | 65° |
| 2026-04-25 13:53 | 50.90357 | 4.47805 | 119 ft | 7 kts | 65° |
| 2026-04-25 13:53 | 50.90377 | 4.47876 | 120 ft | 8 kts | 65° |
| 2026-04-25 13:53 | 50.90402 | 4.47973 | 120 ft | 10 kts | 81° |
| 2026-04-25 13:53 | 50.90375 | 4.48054 | 118 ft | 8 kts | 123° |
| 2026-04-25 13:54 | 50.90372 | 4.48131 | 121 ft | 7 kts | 69° |
| 2026-04-25 13:54 | 50.90384 | 4.48173 | 118 ft | 6 kts | 65° |
| 2026-04-25 13:54 | 50.90415 | 4.48278 | 119 ft | 13 kts | 66° |
| 2026-04-25 13:54 | 50.90452 | 4.48407 | 121 ft | 13 kts | 65° |
| 2026-04-25 13:55 | 50.90487 | 4.48529 | 118 ft | 12 kts | 65° |
| 2026-04-25 13:55 | 50.90519 | 4.48639 | 119 ft | 10 kts | 65° |
| 2026-04-25 13:55 | 50.90547 | 4.48736 | 118 ft | 9 kts | 66° |
| 2026-04-25 13:55 | 50.90535 | 4.48808 | 118 ft | 7 kts | 160° |
| 2026-04-25 13:56 | 50.90502 | 4.48827 | 118 ft | 1 kts | 156° |
| 2026-04-25 13:56 | 50.90496 | 4.48831 | 119 ft | 1 kts | 156° |
| 2026-04-25 13:56 | 50.90490 | 4.48835 | 120 ft | 1 kts | 156° |
| 2026-04-25 13:56 | 50.90485 | 4.48839 | 118 ft | 1 kts | 155° |
| 2026-04-25 13:57 | 50.90483 | 4.48841 | 118 ft | 0 kts | 155° |